sensor_id;sensor_type;location;lat;lon;timestamp;P1;durP1;ratioP1;P2;durP2;ratioP2
18265;SDS011;9259;48.194;16.322;2022-07-05T00:00:34;5.03;;;3.70;;
18265;SDS011;9259;48.194;16.322;2022-07-05T00:03:02;6.47;;;3.90;;
18265;SDS011;9259;48.194;16.322;2022-07-05T00:05:30;5.45;;;3.72;;
18265;SDS011;9259;48.194;16.322;2022-07-05T00:07:58;6.13;;;3.55;;
18265;SDS011;9259;48.194;16.322;2022-07-05T00:10:26;6.78;;;3.80;;
18265;SDS011;9259;48.194;16.322;2022-07-05T00:12:54;5.10;;;3.45;;
18265;SDS011;9259;48.194;16.322;2022-07-05T00:15:24;5.28;;;3.42;;
18265;SDS011;9259;48.194;16.322;2022-07-05T00:17:54;7.68;;;3.88;;
18265;SDS011;9259;48.194;16.322;2022-07-05T00:20:22;4.53;;;3.80;;
18265;SDS011;9259;48.194;16.322;2022-07-05T00:22:50;7.82;;;3.47;;
18265;SDS011;9259;48.194;16.322;2022-07-05T00:25:19;5.53;;;3.47;;
18265;SDS011;9259;48.194;16.322;2022-07-05T00:27:47;5.72;;;3.42;;
18265;SDS011;9259;48.194;16.322;2022-07-05T00:30:15;6.03;;;3.42;;
18265;SDS011;9259;48.194;16.322;2022-07-05T00:32:43;4.55;;;3.33;;
18265;SDS011;9259;48.194;16.322;2022-07-05T00:35:12;6.57;;;3.78;;
18265;SDS011;9259;48.194;16.322;2022-07-05T00:37:42;4.30;;;3.20;;
18265;SDS011;9259;48.194;16.322;2022-07-05T00:40:10;6.07;;;3.97;;
18265;SDS011;9259;48.194;16.322;2022-07-05T00:42:38;7.00;;;3.85;;
18265;SDS011;9259;48.194;16.322;2022-07-05T00:45:07;3.75;;;3.10;;
18265;SDS011;9259;48.194;16.322;2022-07-05T00:47:36;4.70;;;3.13;;
18265;SDS011;9259;48.194;16.322;2022-07-05T00:50:04;4.00;;;3.00;;
18265;SDS011;9259;48.194;16.322;2022-07-05T00:52:34;3.80;;;2.90;;
18265;SDS011;9259;48.194;16.322;2022-07-05T00:55:03;5.43;;;2.90;;
18265;SDS011;9259;48.194;16.322;2022-07-05T00:57:32;3.28;;;2.67;;
18265;SDS011;9259;48.194;16.322;2022-07-05T01:00:04;5.18;;;2.90;;
18265;SDS011;9259;48.194;16.322;2022-07-05T01:02:36;4.32;;;2.90;;
18265;SDS011;9259;48.194;16.322;2022-07-05T01:05:04;3.90;;;2.80;;
18265;SDS011;9259;48.194;16.322;2022-07-05T01:07:34;4.97;;;2.88;;
18265;SDS011;9259;48.194;16.322;2022-07-05T01:10:03;5.00;;;2.90;;
18265;SDS011;9259;48.194;16.322;2022-07-05T01:12:31;4.43;;;3.15;;
18265;SDS011;9259;48.194;16.322;2022-07-05T01:14:59;3.90;;;3.00;;
18265;SDS011;9259;48.194;16.322;2022-07-05T01:17:27;3.80;;;3.15;;
18265;SDS011;9259;48.194;16.322;2022-07-05T01:19:55;6.25;;;3.25;;
18265;SDS011;9259;48.194;16.322;2022-07-05T01:22:24;4.68;;;3.08;;
18265;SDS011;9259;48.194;16.322;2022-07-05T01:24:54;4.03;;;2.60;;
18265;SDS011;9259;48.194;16.322;2022-07-05T01:27:23;6.18;;;3.15;;
18265;SDS011;9259;48.194;16.322;2022-07-05T01:29:51;3.03;;;2.33;;
18265;SDS011;9259;48.194;16.322;2022-07-05T01:32:19;3.75;;;2.80;;
18265;SDS011;9259;48.194;16.322;2022-07-05T01:34:47;4.95;;;2.80;;
18265;SDS011;9259;48.194;16.322;2022-07-05T01:37:15;3.90;;;2.75;;
18265;SDS011;9259;48.194;16.322;2022-07-05T01:39:43;3.00;;;2.30;;
18265;SDS011;9259;48.194;16.322;2022-07-05T01:42:13;3.63;;;2.85;;
18265;SDS011;9259;48.194;16.322;2022-07-05T01:44:42;4.72;;;2.70;;
18265;SDS011;9259;48.194;16.322;2022-07-05T01:47:10;3.35;;;2.85;;
18265;SDS011;9259;48.194;16.322;2022-07-05T01:49:40;5.88;;;2.53;;
18265;SDS011;9259;48.194;16.322;2022-07-05T01:52:10;5.85;;;2.53;;
18265;SDS011;9259;48.194;16.322;2022-07-05T01:54:39;4.90;;;2.92;;
18265;SDS011;9259;48.194;16.322;2022-07-05T01:57:07;3.20;;;2.75;;
18265;SDS011;9259;48.194;16.322;2022-07-05T01:59:37;3.75;;;2.15;;
18265;SDS011;9259;48.194;16.322;2022-07-05T02:02:05;2.95;;;2.33;;
18265;SDS011;9259;48.194;16.322;2022-07-05T02:04:35;5.72;;;2.88;;
18265;SDS011;9259;48.194;16.322;2022-07-05T02:07:03;5.68;;;2.72;;
18265;SDS011;9259;48.194;16.322;2022-07-05T02:09:32;4.50;;;2.75;;
18265;SDS011;9259;48.194;16.322;2022-07-05T02:12:01;7.30;;;2.85;;
18265;SDS011;9259;48.194;16.322;2022-07-05T02:14:30;3.97;;;2.70;;
18265;SDS011;9259;48.194;16.322;2022-07-05T02:17:00;3.17;;;2.63;;
18265;SDS011;9259;48.194;16.322;2022-07-05T02:19:28;3.88;;;2.83;;
18265;SDS011;9259;48.194;16.322;2022-07-05T02:21:56;3.33;;;2.65;;
18265;SDS011;9259;48.194;16.322;2022-07-05T02:24:24;4.28;;;2.53;;
18265;SDS011;9259;48.194;16.322;2022-07-05T02:26:52;4.43;;;2.60;;
18265;SDS011;9259;48.194;16.322;2022-07-05T02:29:20;5.25;;;2.55;;
18265;SDS011;9259;48.194;16.322;2022-07-05T02:31:53;4.40;;;2.95;;
18265;SDS011;9259;48.194;16.322;2022-07-05T02:34:23;4.00;;;2.65;;
18265;SDS011;9259;48.194;16.322;2022-07-05T02:36:51;3.33;;;2.40;;
18265;SDS011;9259;48.194;16.322;2022-07-05T02:39:20;4.10;;;2.60;;
18265;SDS011;9259;48.194;16.322;2022-07-05T02:41:48;5.15;;;2.40;;
18265;SDS011;9259;48.194;16.322;2022-07-05T02:44:16;4.03;;;2.80;;
18265;SDS011;9259;48.194;16.322;2022-07-05T02:46:44;4.97;;;2.95;;
18265;SDS011;9259;48.194;16.322;2022-07-05T02:49:12;3.67;;;2.70;;
18265;SDS011;9259;48.194;16.322;2022-07-05T02:51:43;3.42;;;2.53;;
18265;SDS011;9259;48.194;16.322;2022-07-05T02:54:11;4.47;;;2.50;;
18265;SDS011;9259;48.194;16.322;2022-07-05T02:56:39;3.38;;;2.45;;
18265;SDS011;9259;48.194;16.322;2022-07-05T02:59:07;5.40;;;2.90;;
18265;SDS011;9259;48.194;16.322;2022-07-05T03:01:35;5.65;;;2.75;;
18265;SDS011;9259;48.194;16.322;2022-07-05T03:04:03;6.60;;;2.40;;
18265;SDS011;9259;48.194;16.322;2022-07-05T03:06:31;6.90;;;2.72;;
18265;SDS011;9259;48.194;16.322;2022-07-05T03:09:01;5.68;;;3.20;;
18265;SDS011;9259;48.194;16.322;2022-07-05T03:11:31;3.10;;;2.35;;
18265;SDS011;9259;48.194;16.322;2022-07-05T03:13:59;4.25;;;2.38;;
18265;SDS011;9259;48.194;16.322;2022-07-05T03:16:33;6.45;;;2.70;;
18265;SDS011;9259;48.194;16.322;2022-07-05T03:19:01;5.45;;;2.45;;
18265;SDS011;9259;48.194;16.322;2022-07-05T03:21:29;6.03;;;2.40;;
18265;SDS011;9259;48.194;16.322;2022-07-05T03:23:57;4.53;;;2.30;;
18265;SDS011;9259;48.194;16.322;2022-07-05T03:26:27;3.38;;;2.40;;
18265;SDS011;9259;48.194;16.322;2022-07-05T03:28:55;3.25;;;2.45;;
18265;SDS011;9259;48.194;16.322;2022-07-05T03:31:23;3.63;;;2.80;;
18265;SDS011;9259;48.194;16.322;2022-07-05T03:33:51;4.35;;;2.45;;
18265;SDS011;9259;48.194;16.322;2022-07-05T03:36:19;3.00;;;2.60;;
18265;SDS011;9259;48.194;16.322;2022-07-05T03:38:49;3.30;;;2.72;;
18265;SDS011;9259;48.194;16.322;2022-07-05T03:41:17;6.20;;;2.83;;
18265;SDS011;9259;48.194;16.322;2022-07-05T03:43:47;4.75;;;2.95;;
18265;SDS011;9259;48.194;16.322;2022-07-05T03:46:15;4.30;;;3.22;;
18265;SDS011;9259;48.194;16.322;2022-07-05T03:48:43;4.50;;;3.22;;
18265;SDS011;9259;48.194;16.322;2022-07-05T03:51:11;4.75;;;3.28;;
18265;SDS011;9259;48.194;16.322;2022-07-05T03:53:39;6.53;;;3.25;;
18265;SDS011;9259;48.194;16.322;2022-07-05T03:56:07;5.63;;;3.28;;
18265;SDS011;9259;48.194;16.322;2022-07-05T03:58:35;4.07;;;2.95;;
18265;SDS011;9259;48.194;16.322;2022-07-05T04:01:04;6.28;;;3.28;;
18265;SDS011;9259;48.194;16.322;2022-07-05T04:03:32;5.70;;;2.80;;
18265;SDS011;9259;48.194;16.322;2022-07-05T04:06:00;7.35;;;3.33;;
18265;SDS011;9259;48.194;16.322;2022-07-05T04:08:28;4.40;;;2.80;;
18265;SDS011;9259;48.194;16.322;2022-07-05T04:10:56;3.83;;;2.75;;
18265;SDS011;9259;48.194;16.322;2022-07-05T04:13:24;5.30;;;2.67;;
18265;SDS011;9259;48.194;16.322;2022-07-05T04:15:55;4.05;;;2.25;;
18265;SDS011;9259;48.194;16.322;2022-07-05T04:18:25;8.57;;;2.33;;
18265;SDS011;9259;48.194;16.322;2022-07-05T04:20:53;3.17;;;2.63;;
18265;SDS011;9259;48.194;16.322;2022-07-05T04:23:21;4.40;;;2.30;;
18265;SDS011;9259;48.194;16.322;2022-07-05T04:25:49;3.85;;;2.35;;
18265;SDS011;9259;48.194;16.322;2022-07-05T04:28:17;2.70;;;2.17;;
18265;SDS011;9259;48.194;16.322;2022-07-05T04:30:45;4.22;;;2.20;;
18265;SDS011;9259;48.194;16.322;2022-07-05T04:33:13;4.78;;;2.10;;
18265;SDS011;9259;48.194;16.322;2022-07-05T04:35:42;4.88;;;2.13;;
18265;SDS011;9259;48.194;16.322;2022-07-05T04:38:10;4.90;;;2.00;;
18265;SDS011;9259;48.194;16.322;2022-07-05T04:40:41;2.78;;;1.63;;
18265;SDS011;9259;48.194;16.322;2022-07-05T04:43:09;2.67;;;2.00;;
18265;SDS011;9259;48.194;16.322;2022-07-05T04:45:37;4.43;;;2.00;;
18265;SDS011;9259;48.194;16.322;2022-07-05T04:48:05;2.92;;;1.80;;
18265;SDS011;9259;48.194;16.322;2022-07-05T04:50:33;2.65;;;1.90;;
18265;SDS011;9259;48.194;16.322;2022-07-05T04:53:02;3.50;;;1.88;;
18265;SDS011;9259;48.194;16.322;2022-07-05T04:55:30;3.83;;;1.73;;
18265;SDS011;9259;48.194;16.322;2022-07-05T04:57:58;2.40;;;1.65;;
18265;SDS011;9259;48.194;16.322;2022-07-05T05:00:26;3.35;;;1.45;;
18265;SDS011;9259;48.194;16.322;2022-07-05T05:02:54;5.00;;;1.48;;
18265;SDS011;9259;48.194;16.322;2022-07-05T05:05:22;5.30;;;1.85;;
18265;SDS011;9259;48.194;16.322;2022-07-05T05:07:50;5.07;;;1.60;;
18265;SDS011;9259;48.194;16.322;2022-07-05T05:10:20;5.95;;;1.83;;
18265;SDS011;9259;48.194;16.322;2022-07-05T05:12:48;3.45;;;1.80;;
18265;SDS011;9259;48.194;16.322;2022-07-05T05:15:16;2.65;;;1.80;;
18265;SDS011;9259;48.194;16.322;2022-07-05T05:17:47;2.70;;;1.70;;
18265;SDS011;9259;48.194;16.322;2022-07-05T05:20:16;2.38;;;1.80;;
18265;SDS011;9259;48.194;16.322;2022-07-05T05:22:45;3.15;;;1.60;;
18265;SDS011;9259;48.194;16.322;2022-07-05T05:25:14;2.15;;;1.60;;
18265;SDS011;9259;48.194;16.322;2022-07-05T05:27:44;2.33;;;1.60;;
18265;SDS011;9259;48.194;16.322;2022-07-05T05:30:13;3.95;;;1.75;;
18265;SDS011;9259;48.194;16.322;2022-07-05T05:32:42;3.50;;;1.80;;
18265;SDS011;9259;48.194;16.322;2022-07-05T05:35:10;2.20;;;1.63;;
18265;SDS011;9259;48.194;16.322;2022-07-05T05:40:24;4.00;;;2.40;;
18265;SDS011;9259;48.194;16.322;2022-07-05T05:42:54;6.07;;;2.30;;
18265;SDS011;9259;48.194;16.322;2022-07-05T05:45:22;2.20;;;1.90;;
18265;SDS011;9259;48.194;16.322;2022-07-05T05:47:51;6.40;;;2.00;;
18265;SDS011;9259;48.194;16.322;2022-07-05T05:50:20;3.72;;;2.13;;
18265;SDS011;9259;48.194;16.322;2022-07-05T05:52:51;5.10;;;2.40;;
18265;SDS011;9259;48.194;16.322;2022-07-05T05:55:21;4.28;;;2.22;;
18265;SDS011;9259;48.194;16.322;2022-07-05T05:57:49;3.97;;;2.10;;
18265;SDS011;9259;48.194;16.322;2022-07-05T06:00:19;3.22;;;2.20;;
18265;SDS011;9259;48.194;16.322;2022-07-05T06:02:48;3.40;;;2.13;;
18265;SDS011;9259;48.194;16.322;2022-07-05T06:05:16;3.90;;;2.10;;
18265;SDS011;9259;48.194;16.322;2022-07-05T06:07:48;2.33;;;2.00;;
18265;SDS011;9259;48.194;16.322;2022-07-05T06:10:18;3.53;;;1.88;;
18265;SDS011;9259;48.194;16.322;2022-07-05T06:12:49;2.20;;;1.80;;
18265;SDS011;9259;48.194;16.322;2022-07-05T06:15:19;3.17;;;2.10;;
18265;SDS011;9259;48.194;16.322;2022-07-05T06:17:48;5.22;;;2.10;;
18265;SDS011;9259;48.194;16.322;2022-07-05T06:20:17;4.10;;;2.17;;
18265;SDS011;9259;48.194;16.322;2022-07-05T06:22:46;5.20;;;2.00;;
18265;SDS011;9259;48.194;16.322;2022-07-05T06:25:14;6.25;;;1.92;;
18265;SDS011;9259;48.194;16.322;2022-07-05T06:27:43;2.58;;;1.85;;
18265;SDS011;9259;48.194;16.322;2022-07-05T06:30:13;4.75;;;2.20;;
18265;SDS011;9259;48.194;16.322;2022-07-05T06:32:44;3.53;;;2.00;;
18265;SDS011;9259;48.194;16.322;2022-07-05T06:35:12;4.95;;;2.13;;
18265;SDS011;9259;48.194;16.322;2022-07-05T06:37:41;6.03;;;2.38;;
18265;SDS011;9259;48.194;16.322;2022-07-05T06:40:10;3.55;;;1.77;;
18265;SDS011;9259;48.194;16.322;2022-07-05T06:42:42;2.53;;;1.88;;
18265;SDS011;9259;48.194;16.322;2022-07-05T06:45:10;3.10;;;1.50;;
18265;SDS011;9259;48.194;16.322;2022-07-05T06:47:38;2.65;;;1.60;;
18265;SDS011;9259;48.194;16.322;2022-07-05T06:50:08;3.03;;;1.73;;
18265;SDS011;9259;48.194;16.322;2022-07-05T06:52:37;3.00;;;1.75;;
18265;SDS011;9259;48.194;16.322;2022-07-05T06:55:06;6.03;;;1.80;;
18265;SDS011;9259;48.194;16.322;2022-07-05T06:57:34;4.55;;;1.77;;
18265;SDS011;9259;48.194;16.322;2022-07-05T07:00:03;2.45;;;1.50;;
18265;SDS011;9259;48.194;16.322;2022-07-05T07:02:32;2.45;;;1.73;;
18265;SDS011;9259;48.194;16.322;2022-07-05T07:05:03;3.30;;;1.50;;
18265;SDS011;9259;48.194;16.322;2022-07-05T07:07:33;3.85;;;1.42;;
18265;SDS011;9259;48.194;16.322;2022-07-05T07:10:19;2.83;;;1.52;;
18265;SDS011;9259;48.194;16.322;2022-07-05T07:12:47;3.50;;;1.42;;
18265;SDS011;9259;48.194;16.322;2022-07-05T07:15:15;4.72;;;1.50;;
18265;SDS011;9259;48.194;16.322;2022-07-05T07:17:43;2.10;;;1.50;;
18265;SDS011;9259;48.194;16.322;2022-07-05T07:20:11;2.97;;;1.70;;
18265;SDS011;9259;48.194;16.322;2022-07-05T07:22:40;3.50;;;1.40;;
18265;SDS011;9259;48.194;16.322;2022-07-05T07:25:08;1.83;;;1.33;;
18265;SDS011;9259;48.194;16.322;2022-07-05T07:27:40;2.95;;;1.50;;
18265;SDS011;9259;48.194;16.322;2022-07-05T07:30:10;1.50;;;1.10;;
18265;SDS011;9259;48.194;16.322;2022-07-05T07:32:39;1.60;;;1.50;;
18265;SDS011;9259;48.194;16.322;2022-07-05T07:35:08;3.50;;;1.15;;
18265;SDS011;9259;48.194;16.322;2022-07-05T07:37:36;1.50;;;1.20;;
18265;SDS011;9259;48.194;16.322;2022-07-05T07:40:06;3.33;;;1.20;;
18265;SDS011;9259;48.194;16.322;2022-07-05T07:42:35;3.47;;;1.20;;
18265;SDS011;9259;48.194;16.322;2022-07-05T07:45:03;1.40;;;1.00;;
18265;SDS011;9259;48.194;16.322;2022-07-05T07:47:31;1.67;;;1.05;;
18265;SDS011;9259;48.194;16.322;2022-07-05T07:50:00;1.63;;;0.90;;
18265;SDS011;9259;48.194;16.322;2022-07-05T07:52:28;2.03;;;0.95;;
18265;SDS011;9259;48.194;16.322;2022-07-05T07:54:58;1.77;;;0.93;;
18265;SDS011;9259;48.194;16.322;2022-07-05T07:57:28;2.15;;;0.85;;
18265;SDS011;9259;48.194;16.322;2022-07-05T07:59:56;5.47;;;1.00;;
18265;SDS011;9259;48.194;16.322;2022-07-05T08:02:24;0.75;;;0.73;;
18265;SDS011;9259;48.194;16.322;2022-07-05T08:04:52;0.82;;;0.80;;
18265;SDS011;9259;48.194;16.322;2022-07-05T08:07:20;1.95;;;0.85;;
18265;SDS011;9259;48.194;16.322;2022-07-05T08:09:48;1.77;;;0.80;;
18265;SDS011;9259;48.194;16.322;2022-07-05T08:12:18;1.55;;;0.70;;
18265;SDS011;9259;48.194;16.322;2022-07-05T08:14:48;0.98;;;0.75;;
18265;SDS011;9259;48.194;16.322;2022-07-05T08:17:16;1.92;;;0.70;;
18265;SDS011;9259;48.194;16.322;2022-07-05T08:19:46;0.95;;;0.70;;
18265;SDS011;9259;48.194;16.322;2022-07-05T08:22:32;1.13;;;0.70;;
18265;SDS011;9259;48.194;16.322;2022-07-05T08:25:00;0.80;;;0.70;;
18265;SDS011;9259;48.194;16.322;2022-07-05T08:27:31;1.42;;;0.60;;
18265;SDS011;9259;48.194;16.322;2022-07-05T08:30:00;1.80;;;0.82;;
18265;SDS011;9259;48.194;16.322;2022-07-05T08:32:28;0.82;;;0.60;;
18265;SDS011;9259;48.194;16.322;2022-07-05T08:34:56;1.17;;;0.80;;
18265;SDS011;9259;48.194;16.322;2022-07-05T08:37:24;0.70;;;0.60;;
18265;SDS011;9259;48.194;16.322;2022-07-05T08:39:52;0.93;;;0.70;;
18265;SDS011;9259;48.194;16.322;2022-07-05T08:42:20;1.77;;;0.88;;
18265;SDS011;9259;48.194;16.322;2022-07-05T08:44:49;2.78;;;1.00;;
18265;SDS011;9259;48.194;16.322;2022-07-05T08:47:19;1.38;;;1.00;;
18265;SDS011;9259;48.194;16.322;2022-07-05T08:49:55;3.70;;;1.60;;
18265;SDS011;9259;48.194;16.322;2022-07-05T08:52:23;2.40;;;1.50;;
18265;SDS011;9259;48.194;16.322;2022-07-05T08:54:51;2.55;;;1.40;;
18265;SDS011;9259;48.194;16.322;2022-07-05T08:57:20;2.58;;;1.40;;
18265;SDS011;9259;48.194;16.322;2022-07-05T08:59:48;2.78;;;1.80;;
18265;SDS011;9259;48.194;16.322;2022-07-05T09:02:16;6.50;;;2.10;;
18265;SDS011;9259;48.194;16.322;2022-07-05T09:04:46;3.50;;;2.30;;
18265;SDS011;9259;48.194;16.322;2022-07-05T09:07:16;2.92;;;2.25;;
18265;SDS011;9259;48.194;16.322;2022-07-05T09:09:47;5.55;;;1.45;;
18265;SDS011;9259;48.194;16.322;2022-07-05T09:12:17;1.70;;;1.40;;
18265;SDS011;9259;48.194;16.322;2022-07-05T09:14:45;2.28;;;1.30;;
18265;SDS011;9259;48.194;16.322;2022-07-05T09:17:13;4.03;;;1.38;;
18265;SDS011;9259;48.194;16.322;2022-07-05T09:19:41;3.65;;;1.30;;
18265;SDS011;9259;48.194;16.322;2022-07-05T09:22:11;1.63;;;1.20;;
18265;SDS011;9259;48.194;16.322;2022-07-05T09:24:43;3.88;;;1.30;;
18265;SDS011;9259;48.194;16.322;2022-07-05T09:27:11;3.30;;;1.40;;
18265;SDS011;9259;48.194;16.322;2022-07-05T09:29:39;2.35;;;1.33;;
18265;SDS011;9259;48.194;16.322;2022-07-05T09:32:22;3.53;;;1.55;;
18265;SDS011;9259;48.194;16.322;2022-07-05T09:34:51;5.10;;;1.45;;
18265;SDS011;9259;48.194;16.322;2022-07-05T09:37:20;2.25;;;1.20;;
18265;SDS011;9259;48.194;16.322;2022-07-05T09:39:48;2.20;;;1.45;;
18265;SDS011;9259;48.194;16.322;2022-07-05T09:42:17;1.48;;;1.17;;
18265;SDS011;9259;48.194;16.322;2022-07-05T09:44:50;3.35;;;1.40;;
18265;SDS011;9259;48.194;16.322;2022-07-05T09:47:20;2.88;;;1.45;;
18265;SDS011;9259;48.194;16.322;2022-07-05T09:49:49;1.60;;;1.30;;
18265;SDS011;9259;48.194;16.322;2022-07-05T09:52:29;1.60;;;1.20;;
18265;SDS011;9259;48.194;16.322;2022-07-05T09:55:03;1.55;;;1.20;;
18265;SDS011;9259;48.194;16.322;2022-07-05T09:57:32;2.17;;;1.38;;
18265;SDS011;9259;48.194;16.322;2022-07-05T10:00:02;2.25;;;1.33;;
18265;SDS011;9259;48.194;16.322;2022-07-05T10:02:35;1.92;;;1.60;;
18265;SDS011;9259;48.194;16.322;2022-07-05T10:05:07;3.63;;;2.42;;
18265;SDS011;9259;48.194;16.322;2022-07-05T10:07:37;8.38;;;4.43;;
18265;SDS011;9259;48.194;16.322;2022-07-05T10:10:10;7.35;;;5.13;;
18265;SDS011;9259;48.194;16.322;2022-07-05T10:12:39;14.23;;;2.60;;
18265;SDS011;9259;48.194;16.322;2022-07-05T10:15:09;4.60;;;1.70;;
18265;SDS011;9259;48.194;16.322;2022-07-05T10:17:39;6.45;;;4.05;;
18265;SDS011;9259;48.194;16.322;2022-07-05T10:20:12;5.18;;;3.20;;
18265;SDS011;9259;48.194;16.322;2022-07-05T10:22:47;1.90;;;1.70;;
18265;SDS011;9259;48.194;16.322;2022-07-05T10:25:15;5.03;;;1.90;;
18265;SDS011;9259;48.194;16.322;2022-07-05T10:27:43;3.20;;;2.00;;
18265;SDS011;9259;48.194;16.322;2022-07-05T10:30:12;2.35;;;1.90;;
18265;SDS011;9259;48.194;16.322;2022-07-05T10:32:40;4.40;;;2.35;;
18265;SDS011;9259;48.194;16.322;2022-07-05T10:35:08;3.38;;;2.28;;
18265;SDS011;9259;48.194;16.322;2022-07-05T10:37:37;4.38;;;2.10;;
18265;SDS011;9259;48.194;16.322;2022-07-05T10:40:07;3.47;;;1.90;;
18265;SDS011;9259;48.194;16.322;2022-07-05T10:42:37;3.63;;;2.33;;
18265;SDS011;9259;48.194;16.322;2022-07-05T10:48:17;4.65;;;3.45;;
18265;SDS011;9259;48.194;16.322;2022-07-05T10:50:47;2.95;;;2.40;;
18265;SDS011;9259;48.194;16.322;2022-07-05T10:53:17;4.00;;;2.60;;
18265;SDS011;9259;48.194;16.322;2022-07-05T10:55:48;2.63;;;2.35;;
18265;SDS011;9259;48.194;16.322;2022-07-05T10:58:22;4.47;;;2.25;;
18265;SDS011;9259;48.194;16.322;2022-07-05T11:07:04;4.03;;;2.38;;
18265;SDS011;9259;48.194;16.322;2022-07-05T11:09:33;3.97;;;2.30;;
18265;SDS011;9259;48.194;16.322;2022-07-05T11:12:04;4.45;;;2.22;;
18265;SDS011;9259;48.194;16.322;2022-07-05T11:14:36;3.22;;;2.30;;
18265;SDS011;9259;48.194;16.322;2022-07-05T11:17:18;4.30;;;2.45;;
18265;SDS011;9259;48.194;16.322;2022-07-05T11:23:08;5.90;;;3.20;;
18265;SDS011;9259;48.194;16.322;2022-07-05T11:25:38;3.70;;;2.58;;
18265;SDS011;9259;48.194;16.322;2022-07-05T11:28:13;3.28;;;2.30;;
18265;SDS011;9259;48.194;16.322;2022-07-05T11:30:57;4.43;;;2.90;;
18265;SDS011;9259;48.194;16.322;2022-07-05T11:33:36;3.83;;;2.42;;
18265;SDS011;9259;48.194;16.322;2022-07-05T11:36:06;3.63;;;2.50;;
18265;SDS011;9259;48.194;16.322;2022-07-05T11:41:46;4.82;;;2.88;;
18265;SDS011;9259;48.194;16.322;2022-07-05T11:44:16;4.22;;;3.33;;
18265;SDS011;9259;48.194;16.322;2022-07-05T11:46:44;9.55;;;2.95;;
18265;SDS011;9259;48.194;16.322;2022-07-05T11:49:18;4.07;;;3.20;;
18265;SDS011;9259;48.194;16.322;2022-07-05T11:51:52;7.13;;;3.22;;
18265;SDS011;9259;48.194;16.322;2022-07-05T11:54:22;6.13;;;2.70;;
18265;SDS011;9259;48.194;16.322;2022-07-05T11:56:50;6.03;;;3.17;;
18265;SDS011;9259;48.194;16.322;2022-07-05T11:59:21;5.63;;;3.20;;
18265;SDS011;9259;48.194;16.322;2022-07-05T12:01:50;3.85;;;2.80;;
18265;SDS011;9259;48.194;16.322;2022-07-05T12:04:22;5.22;;;2.75;;
18265;SDS011;9259;48.194;16.322;2022-07-05T12:06:51;6.93;;;3.33;;
18265;SDS011;9259;48.194;16.322;2022-07-05T12:09:22;3.42;;;2.95;;
18265;SDS011;9259;48.194;16.322;2022-07-05T12:11:53;5.40;;;3.10;;
18265;SDS011;9259;48.194;16.322;2022-07-05T12:14:47;3.15;;;2.53;;
18265;SDS011;9259;48.194;16.322;2022-07-05T12:17:16;4.13;;;2.90;;
18265;SDS011;9259;48.194;16.322;2022-07-05T12:19:45;4.35;;;2.50;;
18265;SDS011;9259;48.194;16.322;2022-07-05T12:22:13;3.15;;;2.65;;
18265;SDS011;9259;48.194;16.322;2022-07-05T12:24:41;3.75;;;2.97;;
18265;SDS011;9259;48.194;16.322;2022-07-05T12:27:09;5.95;;;2.63;;
18265;SDS011;9259;48.194;16.322;2022-07-05T12:29:37;3.50;;;2.88;;
18265;SDS011;9259;48.194;16.322;2022-07-05T12:32:07;5.18;;;2.60;;
18265;SDS011;9259;48.194;16.322;2022-07-05T12:34:35;5.82;;;3.05;;
18265;SDS011;9259;48.194;16.322;2022-07-05T12:37:03;6.28;;;3.35;;
18265;SDS011;9259;48.194;16.322;2022-07-05T12:39:31;3.45;;;2.80;;
18265;SDS011;9259;48.194;16.322;2022-07-05T12:41:59;5.00;;;3.13;;
18265;SDS011;9259;48.194;16.322;2022-07-05T12:44:30;3.92;;;2.90;;
18265;SDS011;9259;48.194;16.322;2022-07-05T12:47:03;6.40;;;3.33;;
18265;SDS011;9259;48.194;16.322;2022-07-05T12:49:33;4.55;;;3.78;;
18265;SDS011;9259;48.194;16.322;2022-07-05T12:52:20;4.55;;;3.40;;
18265;SDS011;9259;48.194;16.322;2022-07-05T12:57:56;3.13;;;2.55;;
18265;SDS011;9259;48.194;16.322;2022-07-05T13:00:30;3.20;;;2.85;;
18265;SDS011;9259;48.194;16.322;2022-07-05T13:02:58;4.38;;;3.03;;
18265;SDS011;9259;48.194;16.322;2022-07-05T13:05:28;6.75;;;2.78;;
18265;SDS011;9259;48.194;16.322;2022-07-05T13:07:56;3.95;;;2.60;;
18265;SDS011;9259;48.194;16.322;2022-07-05T13:10:24;3.08;;;2.40;;
18265;SDS011;9259;48.194;16.322;2022-07-05T13:12:53;2.50;;;2.20;;
18265;SDS011;9259;48.194;16.322;2022-07-05T13:15:22;2.42;;;2.20;;
18265;SDS011;9259;48.194;16.322;2022-07-05T13:17:53;4.25;;;2.45;;
18265;SDS011;9259;48.194;16.322;2022-07-05T13:20:21;3.78;;;2.92;;
18265;SDS011;9259;48.194;16.322;2022-07-05T13:22:50;7.70;;;4.10;;
18265;SDS011;9259;48.194;16.322;2022-07-05T13:25:18;23.70;;;10.45;;
18265;SDS011;9259;48.194;16.322;2022-07-05T13:27:46;9.55;;;4.82;;
18265;SDS011;9259;48.194;16.322;2022-07-05T13:30:15;5.07;;;2.90;;
18265;SDS011;9259;48.194;16.322;2022-07-05T13:32:43;6.75;;;4.20;;
18265;SDS011;9259;48.194;16.322;2022-07-05T13:35:11;4.88;;;3.42;;
18265;SDS011;9259;48.194;16.322;2022-07-05T13:37:39;4.35;;;2.78;;
18265;SDS011;9259;48.194;16.322;2022-07-05T13:40:09;7.88;;;3.13;;
18265;SDS011;9259;48.194;16.322;2022-07-05T13:42:37;4.05;;;2.72;;
18265;SDS011;9259;48.194;16.322;2022-07-05T13:45:06;3.38;;;2.60;;
18265;SDS011;9259;48.194;16.322;2022-07-05T13:47:35;3.65;;;2.70;;
18265;SDS011;9259;48.194;16.322;2022-07-05T13:50:03;4.43;;;3.00;;
18265;SDS011;9259;48.194;16.322;2022-07-05T13:52:49;5.00;;;2.80;;
18265;SDS011;9259;48.194;16.322;2022-07-05T13:55:18;3.85;;;3.05;;
18265;SDS011;9259;48.194;16.322;2022-07-05T13:57:46;3.45;;;2.85;;
18265;SDS011;9259;48.194;16.322;2022-07-05T14:00:15;3.30;;;3.00;;
18265;SDS011;9259;48.194;16.322;2022-07-05T14:02:43;5.35;;;3.50;;
18265;SDS011;9259;48.194;16.322;2022-07-05T14:05:11;6.60;;;3.40;;
18265;SDS011;9259;48.194;16.322;2022-07-05T14:07:43;4.93;;;3.20;;
18265;SDS011;9259;48.194;16.322;2022-07-05T14:10:11;5.60;;;3.20;;
18265;SDS011;9259;48.194;16.322;2022-07-05T14:12:41;7.45;;;4.10;;
18265;SDS011;9259;48.194;16.322;2022-07-05T14:15:09;3.40;;;3.10;;
18265;SDS011;9259;48.194;16.322;2022-07-05T14:17:38;5.03;;;3.15;;
18265;SDS011;9259;48.194;16.322;2022-07-05T14:20:06;4.20;;;3.33;;
18265;SDS011;9259;48.194;16.322;2022-07-05T14:22:35;4.18;;;3.30;;
18265;SDS011;9259;48.194;16.322;2022-07-05T14:25:04;3.33;;;2.95;;
18265;SDS011;9259;48.194;16.322;2022-07-05T14:27:32;4.97;;;3.00;;
18265;SDS011;9259;48.194;16.322;2022-07-05T14:30:06;5.47;;;3.22;;
18265;SDS011;9259;48.194;16.322;2022-07-05T14:32:36;7.60;;;3.80;;
18265;SDS011;9259;48.194;16.322;2022-07-05T14:35:04;7.88;;;3.60;;
18265;SDS011;9259;48.194;16.322;2022-07-05T14:37:32;5.50;;;3.20;;
18265;SDS011;9259;48.194;16.322;2022-07-05T14:40:00;3.03;;;2.72;;
18265;SDS011;9259;48.194;16.322;2022-07-05T14:42:30;3.63;;;2.97;;
18265;SDS011;9259;48.194;16.322;2022-07-05T14:44:58;4.07;;;3.40;;
18265;SDS011;9259;48.194;16.322;2022-07-05T14:47:27;4.05;;;3.13;;
18265;SDS011;9259;48.194;16.322;2022-07-05T14:49:57;4.03;;;3.38;;
18265;SDS011;9259;48.194;16.322;2022-07-05T14:52:25;4.10;;;3.22;;
18265;SDS011;9259;48.194;16.322;2022-07-05T14:54:55;3.15;;;2.85;;
18265;SDS011;9259;48.194;16.322;2022-07-05T14:57:23;4.68;;;2.88;;
18265;SDS011;9259;48.194;16.322;2022-07-05T14:59:51;6.00;;;2.97;;
18265;SDS011;9259;48.194;16.322;2022-07-05T15:02:19;3.85;;;3.08;;
18265;SDS011;9259;48.194;16.322;2022-07-05T15:04:48;3.17;;;2.83;;
18265;SDS011;9259;48.194;16.322;2022-07-05T15:07:16;5.00;;;2.95;;
18265;SDS011;9259;48.194;16.322;2022-07-05T15:09:44;4.57;;;2.88;;
18265;SDS011;9259;48.194;16.322;2022-07-05T15:12:14;3.33;;;3.03;;
18265;SDS011;9259;48.194;16.322;2022-07-05T15:14:44;5.13;;;3.63;;
18265;SDS011;9259;48.194;16.322;2022-07-05T15:17:13;4.30;;;3.42;;
18265;SDS011;9259;48.194;16.322;2022-07-05T15:19:41;4.50;;;3.58;;
18265;SDS011;9259;48.194;16.322;2022-07-05T15:22:11;4.90;;;3.40;;